sensor_id;sensor_type;location;lat;lon;timestamp;pressure;altitude;pressure_sealevel;temperature;humidity
74079;BME280;62437;51.544;-3.276;2023-06-26T00:01:47;101099.68;;;15.00;53.52
74079;BME280;62437;51.544;-3.276;2023-06-26T00:04:13;101102.81;;;13.83;57.32
74079;BME280;62437;51.544;-3.276;2023-06-26T00:06:39;101103.30;;;15.03;56.23
74079;BME280;62437;51.544;-3.276;2023-06-26T00:09:05;101106.69;;;14.44;56.90
74079;BME280;62437;51.544;-3.276;2023-06-26T00:11:30;101101.18;;;15.14;54.64
74079;BME280;62437;51.544;-3.276;2023-06-26T00:13:56;101104.22;;;14.13;56.96
74079;BME280;62437;51.544;-3.276;2023-06-26T00:16:21;101117.15;;;13.28;59.15
74079;BME280;62437;51.544;-3.276;2023-06-26T00:18:47;101111.71;;;14.26;55.21
74079;BME280;62437;51.544;-3.276;2023-06-26T00:21:12;101110.39;;;14.72;55.79
74079;BME280;62437;51.544;-3.276;2023-06-26T00:23:38;101102.98;;;15.87;49.36
74079;BME280;62437;51.544;-3.276;2023-06-26T00:26:04;101105.49;;;14.24;57.09
74079;BME280;62437;51.544;-3.276;2023-06-26T00:28:29;101106.56;;;13.94;57.18
74079;BME280;62437;51.544;-3.276;2023-06-26T00:30:55;101103.54;;;16.02;50.82
74079;BME280;62437;51.544;-3.276;2023-06-26T00:33:20;101109.75;;;13.99;57.85
74079;BME280;62437;51.544;-3.276;2023-06-26T00:35:46;101107.45;;;13.56;59.41
74079;BME280;62437;51.544;-3.276;2023-06-26T00:38:12;101110.02;;;14.38;57.17
74079;BME280;62437;51.544;-3.276;2023-06-26T00:40:37;101108.75;;;15.30;55.30
74079;BME280;62437;51.544;-3.276;2023-06-26T00:43:03;101113.81;;;13.43;59.85
74079;BME280;62437;51.544;-3.276;2023-06-26T00:45:28;101117.09;;;13.32;59.75
74079;BME280;62437;51.544;-3.276;2023-06-26T00:47:54;101116.61;;;13.31;59.90
74079;BME280;62437;51.544;-3.276;2023-06-26T00:50:20;101116.13;;;12.61;61.84
74079;BME280;62437;51.544;-3.276;2023-06-26T00:52:46;101107.64;;;14.10;57.98
74079;BME280;62437;51.544;-3.276;2023-06-26T00:55:11;101111.45;;;15.09;55.20
74079;BME280;62437;51.544;-3.276;2023-06-26T00:57:37;101113.55;;;14.49;57.08
74079;BME280;62437;51.544;-3.276;2023-06-26T01:00:03;101112.94;;;14.39;57.54
74079;BME280;62437;51.544;-3.276;2023-06-26T01:02:30;101112.49;;;13.78;59.04
74079;BME280;62437;51.544;-3.276;2023-06-26T01:04:54;101109.91;;;14.21;58.19
74079;BME280;62437;51.544;-3.276;2023-06-26T01:07:20;101117.52;;;13.45;60.50
74079;BME280;62437;51.544;-3.276;2023-06-26T01:09:45;101114.92;;;13.71;59.19
74079;BME280;62437;51.544;-3.276;2023-06-26T01:12:10;101113.88;;;14.03;58.44
74079;BME280;62437;51.544;-3.276;2023-06-26T01:14:36;101116.22;;;14.61;57.65
74079;BME280;62437;51.544;-3.276;2023-06-26T01:17:02;101115.87;;;13.87;58.58
74079;BME280;62437;51.544;-3.276;2023-06-26T01:19:29;101121.32;;;14.87;55.49
74079;BME280;62437;51.544;-3.276;2023-06-26T01:21:59;101120.81;;;15.56;53.45
74079;BME280;62437;51.544;-3.276;2023-06-26T01:24:19;101122.42;;;15.68;53.60
74079;BME280;62437;51.544;-3.276;2023-06-26T01:26:44;101129.68;;;14.83;55.88
74079;BME280;62437;51.544;-3.276;2023-06-26T01:29:10;101130.19;;;14.73;55.75
74079;BME280;62437;51.544;-3.276;2023-06-26T01:31:36;101132.33;;;14.67;56.35
74079;BME280;62437;51.544;-3.276;2023-06-26T01:34:01;101128.67;;;13.98;57.38
74079;BME280;62437;51.544;-3.276;2023-06-26T01:36:27;101130.56;;;14.62;54.85
74079;BME280;62437;51.544;-3.276;2023-06-26T01:38:52;101129.04;;;15.87;51.66
74079;BME280;62437;51.544;-3.276;2023-06-26T01:41:18;101135.64;;;13.86;58.61
74079;BME280;62437;51.544;-3.276;2023-06-26T01:46:25;101141.88;;;13.89;59.26
74079;BME280;62437;51.544;-3.276;2023-06-26T01:48:38;101140.11;;;15.50;54.21
74079;BME280;62437;51.544;-3.276;2023-06-26T01:51:01;101151.12;;;13.62;57.94
74079;BME280;62437;51.544;-3.276;2023-06-26T01:53:32;101146.44;;;14.65;54.61
74079;BME280;62437;51.544;-3.276;2023-06-26T01:55:59;101148.50;;;13.10;59.69
74079;BME280;62437;51.544;-3.276;2023-06-26T01:58:22;101149.00;;;15.17;55.48
74079;BME280;62437;51.544;-3.276;2023-06-26T02:00:43;101148.67;;;15.56;54.70
74079;BME280;62437;51.544;-3.276;2023-06-26T02:03:09;101150.70;;;17.02;49.43
74079;BME280;62437;51.544;-3.276;2023-06-26T02:05:34;101151.21;;;14.65;55.13
74079;BME280;62437;51.544;-3.276;2023-06-26T02:08:00;101146.94;;;15.44;54.30
74079;BME280;62437;51.544;-3.276;2023-06-26T02:10:25;101146.86;;;16.53;50.04
74079;BME280;62437;51.544;-3.276;2023-06-26T02:12:51;101151.36;;;15.21;53.43
74079;BME280;62437;51.544;-3.276;2023-06-26T02:15:16;101155.64;;;14.15;55.75
74079;BME280;62437;51.544;-3.276;2023-06-26T02:17:42;101158.78;;;14.70;55.83
74079;BME280;62437;51.544;-3.276;2023-06-26T02:20:08;101164.10;;;13.71;57.78
74079;BME280;62437;51.544;-3.276;2023-06-26T02:22:33;101161.47;;;13.38;59.40
74079;BME280;62437;51.544;-3.276;2023-06-26T02:24:59;101156.42;;;13.25;59.28
74079;BME280;62437;51.544;-3.276;2023-06-26T02:27:25;101163.72;;;13.01;60.88
74079;BME280;62437;51.544;-3.276;2023-06-26T02:29:50;101159.14;;;12.35;61.95
74079;BME280;62437;51.544;-3.276;2023-06-26T02:32:16;101161.32;;;12.08;62.05
74079;BME280;62437;51.544;-3.276;2023-06-26T02:34:42;101168.10;;;11.92;63.13
74079;BME280;62437;51.544;-3.276;2023-06-26T02:37:07;101172.06;;;12.11;64.25
74079;BME280;62437;51.544;-3.276;2023-06-26T02:39:33;101170.60;;;11.77;65.25
74079;BME280;62437;51.544;-3.276;2023-06-26T02:41:58;101169.38;;;11.71;64.99
74079;BME280;62437;51.544;-3.276;2023-06-26T02:44:24;101172.37;;;11.41;65.00
74079;BME280;62437;51.544;-3.276;2023-06-26T02:46:50;101171.99;;;11.43;65.33
74079;BME280;62437;51.544;-3.276;2023-06-26T02:49:15;101174.35;;;11.67;65.65
74079;BME280;62437;51.544;-3.276;2023-06-26T02:51:41;101178.85;;;11.46;66.01
74079;BME280;62437;51.544;-3.276;2023-06-26T02:54:07;101177.99;;;11.25;65.88
74079;BME280;62437;51.544;-3.276;2023-06-26T02:56:32;101184.63;;;11.67;64.87
74079;BME280;62437;51.544;-3.276;2023-06-26T02:58:58;101184.48;;;11.49;65.03
74079;BME280;62437;51.544;-3.276;2023-06-26T03:01:24;101186.74;;;11.24;65.97
74079;BME280;62437;51.544;-3.276;2023-06-26T03:03:49;101191.54;;;11.28;66.41
74079;BME280;62437;51.544;-3.276;2023-06-26T03:06:15;101190.54;;;11.48;65.19
74079;BME280;62437;51.544;-3.276;2023-06-26T03:08:41;101189.67;;;12.00;65.29
74079;BME280;62437;51.544;-3.276;2023-06-26T03:11:07;101185.02;;;12.75;61.08
74079;BME280;62437;51.544;-3.276;2023-06-26T03:13:32;101187.15;;;12.44;63.51
74079;BME280;62437;51.544;-3.276;2023-06-26T03:15:58;101191.78;;;12.31;63.13
74079;BME280;62437;51.544;-3.276;2023-06-26T03:18:23;101202.79;;;11.62;63.62
74079;BME280;62437;51.544;-3.276;2023-06-26T03:20:49;101202.43;;;11.85;64.31
74079;BME280;62437;51.544;-3.276;2023-06-26T03:23:15;101200.27;;;11.66;64.30
74079;BME280;62437;51.544;-3.276;2023-06-26T03:25:40;101199.52;;;11.82;64.73
74079;BME280;62437;51.544;-3.276;2023-06-26T03:28:06;101198.89;;;11.67;64.61
74079;BME280;62437;51.544;-3.276;2023-06-26T03:30:31;101196.95;;;11.73;62.97
74079;BME280;62437;51.544;-3.276;2023-06-26T03:32:57;101202.59;;;11.75;64.06
74079;BME280;62437;51.544;-3.276;2023-06-26T03:35:23;101207.20;;;12.19;63.55
74079;BME280;62437;51.544;-3.276;2023-06-26T03:37:49;101206.93;;;12.84;60.52
74079;BME280;62437;51.544;-3.276;2023-06-26T03:40:14;101211.32;;;12.09;61.99
74079;BME280;62437;51.544;-3.276;2023-06-26T03:42:40;101214.97;;;11.50;63.61
74079;BME280;62437;51.544;-3.276;2023-06-26T03:45:06;101212.50;;;12.14;62.05
74079;BME280;62437;51.544;-3.276;2023-06-26T03:47:31;101210.00;;;12.44;61.73
74079;BME280;62437;51.544;-3.276;2023-06-26T03:49:57;101212.72;;;12.67;60.74
74079;BME280;62437;51.544;-3.276;2023-06-26T03:52:22;101223.25;;;12.21;62.61
74079;BME280;62437;51.544;-3.276;2023-06-26T03:54:48;101231.92;;;11.51;63.67
74079;BME280;62437;51.544;-3.276;2023-06-26T03:57:14;101237.84;;;11.50;64.26
74079;BME280;62437;51.544;-3.276;2023-06-26T03:59:39;101237.25;;;11.57;64.89
74079;BME280;62437;51.544;-3.276;2023-06-26T04:02:05;101239.48;;;11.40;65.01
74079;BME280;62437;51.544;-3.276;2023-06-26T04:04:31;101243.92;;;11.25;64.97
74079;BME280;62437;51.544;-3.276;2023-06-26T04:06:56;101248.70;;;11.06;65.80
74079;BME280;62437;51.544;-3.276;2023-06-26T04:09:22;101249.54;;;10.95;65.55
74079;BME280;62437;51.544;-3.276;2023-06-26T04:11:48;101255.37;;;10.89;66.14
74079;BME280;62437;51.544;-3.276;2023-06-26T04:14:13;101257.85;;;10.91;66.00
74079;BME280;62437;51.544;-3.276;2023-06-26T04:16:39;101259.04;;;11.06;66.11
74079;BME280;62437;51.544;-3.276;2023-06-26T04:19:05;101260.61;;;11.70;64.43
74079;BME280;62437;51.544;-3.276;2023-06-26T04:21:30;101261.43;;;11.90;63.70
74079;BME280;62437;51.544;-3.276;2023-06-26T04:23:56;101260.36;;;11.47;64.54
74079;BME280;62437;51.544;-3.276;2023-06-26T04:26:22;101261.96;;;11.55;64.34
74079;BME280;62437;51.544;-3.276;2023-06-26T04:28:47;101266.43;;;12.09;61.96
74079;BME280;62437;51.544;-3.276;2023-06-26T04:31:13;101267.44;;;12.13;63.23
74079;BME280;62437;51.544;-3.276;2023-06-26T04:33:38;101271.62;;;12.48;62.78
74079;BME280;62437;51.544;-3.276;2023-06-26T04:36:04;101275.14;;;11.32;64.27
74079;BME280;62437;51.544;-3.276;2023-06-26T04:38:30;101282.66;;;11.83;63.39
74079;BME280;62437;51.544;-3.276;2023-06-26T04:40:55;101283.30;;;11.62;65.00
74079;BME280;62437;51.544;-3.276;2023-06-26T04:43:21;101284.63;;;11.82;63.55
74079;BME280;62437;51.544;-3.276;2023-06-26T04:45:47;101283.15;;;12.41;61.04
74079;BME280;62437;51.544;-3.276;2023-06-26T04:48:12;101288.18;;;12.34;62.16
74079;BME280;62437;51.544;-3.276;2023-06-26T04:50:38;101293.75;;;12.64;61.08
74079;BME280;62437;51.544;-3.276;2023-06-26T04:53:03;101292.43;;;12.25;62.85
74079;BME280;62437;51.544;-3.276;2023-06-26T04:55:29;101290.15;;;13.48;57.22
74079;BME280;62437;51.544;-3.276;2023-06-26T04:57:55;101292.20;;;12.00;63.38
74079;BME280;62437;51.544;-3.276;2023-06-26T05:00:21;101294.95;;;14.09;54.41
74079;BME280;62437;51.544;-3.276;2023-06-26T05:02:46;101294.93;;;12.35;61.16
74079;BME280;62437;51.544;-3.276;2023-06-26T05:05:12;101289.54;;;12.95;61.47
74079;BME280;62437;51.544;-3.276;2023-06-26T05:07:38;101291.16;;;12.15;61.92
74079;BME280;62437;51.544;-3.276;2023-06-26T05:10:04;101283.31;;;15.03;52.03
74079;BME280;62437;51.544;-3.276;2023-06-26T05:12:29;101292.44;;;14.76;55.77
74079;BME280;62437;51.544;-3.276;2023-06-26T05:14:55;101297.03;;;13.01;58.54
74079;BME280;62437;51.544;-3.276;2023-06-26T05:17:20;101297.02;;;13.21;58.29
74079;BME280;62437;51.544;-3.276;2023-06-26T05:19:46;101294.97;;;13.53;57.67
74079;BME280;62437;51.544;-3.276;2023-06-26T05:22:12;101294.59;;;13.46;58.91
74079;BME280;62437;51.544;-3.276;2023-06-26T05:24:38;101303.56;;;12.82;59.77
74079;BME280;62437;51.544;-3.276;2023-06-26T05:27:03;101305.49;;;12.79;60.37
74079;BME280;62437;51.544;-3.276;2023-06-26T05:29:30;101310.78;;;12.82;60.84
74079;BME280;62437;51.544;-3.276;2023-06-26T05:31:56;101314.89;;;13.49;58.21
74079;BME280;62437;51.544;-3.276;2023-06-26T05:34:20;101318.30;;;12.35;60.61
74079;BME280;62437;51.544;-3.276;2023-06-26T05:36:46;101324.00;;;12.96;60.80
74079;BME280;62437;51.544;-3.276;2023-06-26T05:39:11;101328.80;;;12.74;60.47
74079;BME280;62437;51.544;-3.276;2023-06-26T05:41:37;101334.02;;;13.33;59.56
74079;BME280;62437;51.544;-3.276;2023-06-26T05:44:02;101334.38;;;13.77;58.31
74079;BME280;62437;51.544;-3.276;2023-06-26T05:46:27;101334.22;;;13.38;58.15
74079;BME280;62437;51.544;-3.276;2023-06-26T05:48:53;101334.64;;;14.98;53.14
74079;BME280;62437;51.544;-3.276;2023-06-26T05:51:19;101332.29;;;15.51;52.24
74079;BME280;62437;51.544;-3.276;2023-06-26T05:53:45;101340.72;;;14.27;56.02
74079;BME280;62437;51.544;-3.276;2023-06-26T05:56:11;101331.81;;;13.54;58.26
74079;BME280;62437;51.544;-3.276;2023-06-26T05:58:36;101335.58;;;14.23;55.42
74079;BME280;62437;51.544;-3.276;2023-06-26T06:01:01;101334.57;;;14.71;55.29
74079;BME280;62437;51.544;-3.276;2023-06-26T06:03:27;101333.77;;;13.60;58.81
74079;BME280;62437;51.544;-3.276;2023-06-26T06:05:52;101335.51;;;13.25;60.32
74079;BME280;62437;51.544;-3.276;2023-06-26T06:08:18;101326.93;;;16.72;50.13
74079;BME280;62437;51.544;-3.276;2023-06-26T06:10:44;101325.82;;;19.16;47.91
74079;BME280;62437;51.544;-3.276;2023-06-26T06:13:09;101326.16;;;20.16;43.81
74079;BME280;62437;51.544;-3.276;2023-06-26T06:15:35;101331.23;;;20.05;41.94
74079;BME280;62437;51.544;-3.276;2023-06-26T06:18:00;101327.65;;;20.25;40.72
74079;BME280;62437;51.544;-3.276;2023-06-26T06:20:26;101340.29;;;17.86;47.36
74079;BME280;62437;51.544;-3.276;2023-06-26T06:22:51;101343.47;;;17.68;48.93
74079;BME280;62437;51.544;-3.276;2023-06-26T06:25:17;101342.80;;;19.23;45.96
74079;BME280;62437;51.544;-3.276;2023-06-26T06:27:42;101345.13;;;17.66;47.35
74079;BME280;62437;51.544;-3.276;2023-06-26T06:30:09;101352.61;;;19.15;45.91
74079;BME280;62437;51.544;-3.276;2023-06-26T06:32:33;101350.23;;;18.17;46.08
74079;BME280;62437;51.544;-3.276;2023-06-26T06:34:59;101347.45;;;18.24;47.68
74079;BME280;62437;51.544;-3.276;2023-06-26T06:37:24;101348.17;;;18.82;44.76
74079;BME280;62437;51.544;-3.276;2023-06-26T06:39:50;101343.53;;;19.97;41.61
74079;BME280;62437;51.544;-3.276;2023-06-26T06:42:15;101349.37;;;18.84;45.55
74079;BME280;62437;51.544;-3.276;2023-06-26T06:44:41;101346.01;;;18.17;45.23
74079;BME280;62437;51.544;-3.276;2023-06-26T06:47:06;101351.61;;;17.89;45.87
74079;BME280;62437;51.544;-3.276;2023-06-26T06:49:32;101365.49;;;19.35;43.43
74079;BME280;62437;51.544;-3.276;2023-06-26T06:51:57;101373.31;;;19.78;42.59
74079;BME280;62437;51.544;-3.276;2023-06-26T06:54:26;101379.34;;;18.36;43.81
74079;BME280;62437;51.544;-3.276;2023-06-26T06:56:48;101381.30;;;18.57;45.69
74079;BME280;62437;51.544;-3.276;2023-06-26T06:59:14;101382.92;;;16.68;48.17
74079;BME280;62437;51.544;-3.276;2023-06-26T07:01:40;101384.68;;;16.60;48.12
74079;BME280;62437;51.544;-3.276;2023-06-26T07:04:05;101387.41;;;16.07;50.50
74079;BME280;62437;51.544;-3.276;2023-06-26T07:06:30;101385.80;;;16.24;49.89
74079;BME280;62437;51.544;-3.276;2023-06-26T07:08:56;101398.77;;;15.84;50.30
74079;BME280;62437;51.544;-3.276;2023-06-26T07:11:26;101399.29;;;17.08;47.97
74079;BME280;62437;51.544;-3.276;2023-06-26T07:13:47;101407.61;;;15.60;52.16
74079;BME280;62437;51.544;-3.276;2023-06-26T07:16:12;101402.64;;;15.63;50.16
74079;BME280;62437;51.544;-3.276;2023-06-26T07:18:38;101392.73;;;16.43;48.17
74079;BME280;62437;51.544;-3.276;2023-06-26T07:21:04;101382.61;;;16.88;45.88
74079;BME280;62437;51.544;-3.276;2023-06-26T07:23:29;101386.95;;;18.03;44.17
74079;BME280;62437;51.544;-3.276;2023-06-26T07:25:55;101393.06;;;16.92;45.69
74079;BME280;62437;51.544;-3.276;2023-06-26T07:28:20;101397.08;;;15.90;48.97
74079;BME280;62437;51.544;-3.276;2023-06-26T07:30:46;101406.49;;;15.17;48.72
74079;BME280;62437;51.544;-3.276;2023-06-26T07:33:12;101410.26;;;15.34;48.92
74079;BME280;62437;51.544;-3.276;2023-06-26T07:35:38;101401.23;;;15.64;47.97
74079;BME280;62437;51.544;-3.276;2023-06-26T07:38:03;101407.49;;;15.91;48.47
74079;BME280;62437;51.544;-3.276;2023-06-26T07:40:28;101407.72;;;16.54;48.58
74079;BME280;62437;51.544;-3.276;2023-06-26T07:42:54;101408.91;;;15.52;51.29
74079;BME280;62437;51.544;-3.276;2023-06-26T07:45:20;101412.22;;;15.29;49.54
74079;BME280;62437;51.544;-3.276;2023-06-26T07:47:45;101409.30;;;15.31;49.09
74079;BME280;62437;51.544;-3.276;2023-06-26T07:50:11;101414.40;;;15.02;51.41
74079;BME280;62437;51.544;-3.276;2023-06-26T07:52:37;101418.96;;;14.98;51.92
74079;BME280;62437;51.544;-3.276;2023-06-26T07:55:02;101413.03;;;16.43;48.18
74079;BME280;62437;51.544;-3.276;2023-06-26T07:57:28;101419.09;;;14.60;50.21
74079;BME280;62437;51.544;-3.276;2023-06-26T07:59:53;101423.03;;;14.85;52.39
74079;BME280;62437;51.544;-3.276;2023-06-26T08:02:19;101424.72;;;14.59;55.32
74079;BME280;62437;51.544;-3.276;2023-06-26T08:04:44;101425.39;;;13.71;54.42
74079;BME280;62437;51.544;-3.276;2023-06-26T08:07:10;101422.05;;;14.27;53.11
74079;BME280;62437;51.544;-3.276;2023-06-26T08:09:36;101427.82;;;14.56;52.67
74079;BME280;62437;51.544;-3.276;2023-06-26T08:12:01;101425.02;;;14.39;53.45
74079;BME280;62437;51.544;-3.276;2023-06-26T08:14:27;101428.68;;;14.66;51.98
74079;BME280;62437;51.544;-3.276;2023-06-26T08:16:52;101424.37;;;14.67;49.80
74079;BME280;62437;51.544;-3.276;2023-06-26T08:19:18;101422.83;;;14.15;54.02
74079;BME280;62437;51.544;-3.276;2023-06-26T08:21:45;101422.70;;;14.52;53.35
74079;BME280;62437;51.544;-3.276;2023-06-26T08:24:09;101424.16;;;14.74;54.09
74079;BME280;62437;51.544;-3.276;2023-06-26T08:26:35;101428.21;;;14.98;52.34
74079;BME280;62437;51.544;-3.276;2023-06-26T08:29:00;101429.23;;;15.10;55.33
74079;BME280;62437;51.544;-3.276;2023-06-26T08:31:26;101426.72;;;15.73;52.61
74079;BME280;62437;51.544;-3.276;2023-06-26T08:33:52;101422.44;;;16.24;51.89
74079;BME280;62437;51.544;-3.276;2023-06-26T08:36:17;101419.62;;;15.67;48.98
74079;BME280;62437;51.544;-3.276;2023-06-26T08:38:43;101431.16;;;15.91;50.96
74079;BME280;62437;51.544;-3.276;2023-06-26T08:41:08;101429.81;;;15.64;50.67
74079;BME280;62437;51.544;-3.276;2023-06-26T08:43:35;101417.23;;;15.91;51.34
74079;BME280;62437;51.544;-3.276;2023-06-26T08:46:00;101419.74;;;16.35;49.47
74079;BME280;62437;51.544;-3.276;2023-06-26T08:48:25;101420.53;;;16.58;46.37
74079;BME280;62437;51.544;-3.276;2023-06-26T08:50:53;101426.77;;;15.78;47.48
74079;BME280;62437;51.544;-3.276;2023-06-26T08:53:26;101423.98;;;15.89;47.95
74079;BME280;62437;51.544;-3.276;2023-06-26T08:55:49;101420.24;;;15.95;49.61
74079;BME280;62437;51.544;-3.276;2023-06-26T08:58:08;101421.52;;;14.96;49.80
74079;BME280;62437;51.544;-3.276;2023-06-26T09:00:34;101428.77;;;15.57;49.37
74079;BME280;62437;51.544;-3.276;2023-06-26T09:02:59;101429.17;;;16.19;48.65
74079;BME280;62437;51.544;-3.276;2023-06-26T09:05:26;101435.20;;;15.51;48.03
74079;BME280;62437;51.544;-3.276;2023-06-26T09:07:50;101426.64;;;16.53;47.81
74079;BME280;62437;51.544;-3.276;2023-06-26T09:10:15;101425.13;;;16.55;46.92
74079;BME280;62437;51.544;-3.276;2023-06-26T09:12:41;101429.40;;;16.08;50.27
74079;BME280;62437;51.544;-3.276;2023-06-26T09:15:07;101427.74;;;16.53;50.23
74079;BME280;62437;51.544;-3.276;2023-06-26T09:17:39;101417.68;;;16.11;48.59
74079;BME280;62437;51.544;-3.276;2023-06-26T09:20:04;101421.24;;;16.42;49.83
74079;BME280;62437;51.544;-3.276;2023-06-26T09:22:23;101422.67;;;16.15;47.24
74079;BME280;62437;51.544;-3.276;2023-06-26T09:24:49;101422.20;;;15.87;50.63
74079;BME280;62437;51.544;-3.276;2023-06-26T09:27:16;101427.29;;;16.72;48.30
74079;BME280;62437;51.544;-3.276;2023-06-26T09:29:40;101442.30;;;15.18;51.77
74079;BME280;62437;51.544;-3.276;2023-06-26T09:32:07;101443.37;;;17.15;49.65
74079;BME280;62437;51.544;-3.276;2023-06-26T09:34:32;101439.91;;;16.04;49.83
74079;BME280;62437;51.544;-3.276;2023-06-26T09:36:58;101454.22;;;15.32;50.50
74079;BME280;62437;51.544;-3.276;2023-06-26T09:39:22;101454.23;;;16.20;50.03
74079;BME280;62437;51.544;-3.276;2023-06-26T09:41:48;101455.34;;;15.73;49.52
74079;BME280;62437;51.544;-3.276;2023-06-26T09:44:19;101449.46;;;16.94;48.00
74079;BME280;62437;51.544;-3.276;2023-06-26T09:46:39;101447.43;;;18.29;44.77
74079;BME280;62437;51.544;-3.276;2023-06-26T09:49:08;101458.43;;;15.98;49.24
74079;BME280;62437;51.544;-3.276;2023-06-26T09:51:31;101461.64;;;17.05;46.95
74079;BME280;62437;51.544;-3.276;2023-06-26T09:53:56;101458.92;;;18.40;46.82
74079;BME280;62437;51.544;-3.276;2023-06-26T09:56:22;101466.90;;;16.38;49.22
74079;BME280;62437;51.544;-3.276;2023-06-26T09:58:48;101463.00;;;16.35;49.64
74079;BME280;62437;51.544;-3.276;2023-06-26T10:01:13;101462.98;;;17.79;47.56
74079;BME280;62437;51.544;-3.276;2023-06-26T10:03:39;101468.17;;;16.89;48.97
74079;BME280;62437;51.544;-3.276;2023-06-26T10:06:04;101464.27;;;17.50;45.47
74079;BME280;62437;51.544;-3.276;2023-06-26T10:08:30;101472.84;;;17.81;44.43
74079;BME280;62437;51.544;-3.276;2023-06-26T10:10:55;101477.18;;;17.21;47.38
74079;BME280;62437;51.544;-3.276;2023-06-26T10:13:22;101471.73;;;17.25;43.55
74079;BME280;62437;51.544;-3.276;2023-06-26T10:15:46;101469.75;;;16.93;45.70
74079;BME280;62437;51.544;-3.276;2023-06-26T10:18:12;101469.88;;;17.71;42.82
74079;BME280;62437;51.544;-3.276;2023-06-26T10:20:38;101483.51;;;18.06;44.06
74079;BME280;62437;51.544;-3.276;2023-06-26T10:23:05;101472.35;;;17.68;43.07
74079;BME280;62437;51.544;-3.276;2023-06-26T10:25:29;101478.58;;;18.05;45.40
74079;BME280;62437;51.544;-3.276;2023-06-26T10:27:57;101475.00;;;18.42;46.20
74079;BME280;62437;51.544;-3.276;2023-06-26T10:30:22;101475.96;;;18.42;43.40
74079;BME280;62437;51.544;-3.276;2023-06-26T10:32:45;101493.40;;;19.58;43.68
74079;BME280;62437;51.544;-3.276;2023-06-26T10:35:11;101484.12;;;17.61;44.24
74079;BME280;62437;51.544;-3.276;2023-06-26T10:37:42;101488.62;;;18.64;40.55
74079;BME280;62437;51.544;-3.276;2023-06-26T10:40:02;101489.25;;;19.87;38.28
74079;BME280;62437;51.544;-3.276;2023-06-26T10:42:37;101488.35;;;20.22;40.79
74079;BME280;62437;51.544;-3.276;2023-06-26T10:44:53;101495.47;;;18.14;40.21
74079;BME280;62437;51.544;-3.276;2023-06-26T10:47:29;101491.85;;;17.71;42.44
74079;BME280;62437;51.544;-3.276;2023-06-26T10:49:48;101505.45;;;19.67;42.29
74079;BME280;62437;51.544;-3.276;2023-06-26T10:52:10;101495.74;;;19.34;42.51
74079;BME280;62437;51.544;-3.276;2023-06-26T10:54:37;101505.35;;;17.29;42.97
74079;BME280;62437;51.544;-3.276;2023-06-26T10:57:02;101512.10;;;17.49;44.02
74079;BME280;62437;51.544;-3.276;2023-06-26T10:59:28;101507.47;;;16.75;45.27
74079;BME280;62437;51.544;-3.276;2023-06-26T11:01:56;101508.25;;;17.70;43.33
74079;BME280;62437;51.544;-3.276;2023-06-26T11:04:17;101505.53;;;19.43;44.71
74079;BME280;62437;51.544;-3.276;2023-06-26T11:06:46;101507.35;;;17.93;44.50
74079;BME280;62437;51.544;-3.276;2023-06-26T11:09:10;101505.49;;;19.06;41.72
74079;BME280;62437;51.544;-3.276;2023-06-26T11:14:00;101514.12;;;18.15;41.09
74079;BME280;62437;51.544;-3.276;2023-06-26T11:16:25;101516.02;;;17.71;42.64
74079;BME280;62437;51.544;-3.276;2023-06-26T11:18:51;101526.59;;;17.19;45.38
74079;BME280;62437;51.544;-3.276;2023-06-26T11:21:20;101527.08;;;17.85;42.25
74079;BME280;62437;51.544;-3.276;2023-06-26T11:23:46;101532.69;;;18.40;40.50
74079;BME280;62437;51.544;-3.276;2023-06-26T11:26:15;101527.05;;;19.22;39.91
74079;BME280;62437;51.544;-3.276;2023-06-26T11:28:33;101527.76;;;19.42;40.64
74079;BME280;62437;51.544;-3.276;2023-06-26T11:30:59;101529.60;;;18.21;41.88
74079;BME280;62437;51.544;-3.276;2023-06-26T11:33:28;101541.93;;;18.05;41.34
74079;BME280;62437;51.544;-3.276;2023-06-26T11:35:50;101538.51;;;18.59;38.66
74079;BME280;62437;51.544;-3.276;2023-06-26T11:38:15;101536.16;;;18.71;40.05
74079;BME280;62437;51.544;-3.276;2023-06-26T11:40:41;101537.83;;;18.10;40.27
74079;BME280;62437;51.544;-3.276;2023-06-26T11:43:06;101539.07;;;17.57;41.60
74079;BME280;62437;51.544;-3.276;2023-06-26T11:45:32;101539.56;;;18.11;41.51
74079;BME280;62437;51.544;-3.276;2023-06-26T11:47:58;101545.77;;;17.44;42.68
74079;BME280;62437;51.544;-3.276;2023-06-26T11:50:24;101540.24;;;17.85;39.84
74079;BME280;62437;51.544;-3.276;2023-06-26T11:52:54;101532.41;;;17.85;42.42
74079;BME280;62437;51.544;-3.276;2023-06-26T11:55:14;101534.09;;;17.54;41.77
74079;BME280;62437;51.544;-3.276;2023-06-26T11:57:40;101536.78;;;17.85;40.39
74079;BME280;62437;51.544;-3.276;2023-06-26T12:00:12;101535.59;;;18.20;40.41
74079;BME280;62437;51.544;-3.276;2023-06-26T12:02:31;101539.15;;;18.00;40.59
74079;BME280;62437;51.544;-3.276;2023-06-26T12:04:57;101539.41;;;18.50;38.24
74079;BME280;62437;51.544;-3.276;2023-06-26T12:07:22;101545.83;;;18.73;37.12
74079;BME280;62437;51.544;-3.276;2023-06-26T12:09:48;101548.58;;;19.40;35.74
74079;BME280;62437;51.544;-3.276;2023-06-26T12:12:15;101554.05;;;18.30;37.22
74079;BME280;62437;51.544;-3.276;2023-06-26T12:14:39;101550.93;;;18.49;37.24
74079;BME280;62437;51.544;-3.276;2023-06-26T12:17:05;101554.66;;;19.87;35.62
74079;BME280;62437;51.544;-3.276;2023-06-26T12:19:30;101552.75;;;19.03;38.58
74079;BME280;62437;51.544;-3.276;2023-06-26T12:21:55;101552.57;;;18.47;35.58
74079;BME280;62437;51.544;-3.276;2023-06-26T12:24:22;101553.16;;;18.02;37.33
74079;BME280;62437;51.544;-3.276;2023-06-26T12:26:50;101555.02;;;17.62;37.48
74079;BME280;62437;51.544;-3.276;2023-06-26T12:29:13;101555.31;;;17.09;40.47
74079;BME280;62437;51.544;-3.276;2023-06-26T12:31:40;101557.49;;;17.83;38.32
74079;BME280;62437;51.544;-3.276;2023-06-26T12:34:09;101558.64;;;18.23;37.82
74079;BME280;62437;51.544;-3.276;2023-06-26T12:36:29;101546.86;;;18.48;36.68